createdAt,value
2022-08-22T00:00:26.530Z,6.22
2022-08-22T00:02:54.355Z,11.38
2022-08-22T00:02:58.484Z,14.95
2022-08-22T00:03:01.015Z,11.90
2022-08-22T00:03:02.938Z,11.50
2022-08-22T00:03:03.228Z,7.53
2022-08-22T00:03:07.954Z,8.10
2022-08-22T00:03:18.494Z,7.03
2022-08-22T00:05:58.615Z,8.32
2022-08-22T00:08:37.892Z,8.07
2022-08-22T00:11:34.794Z,5.90
2022-08-22T00:14:21.716Z,7.18
2022-08-22T00:17:03.275Z,10.88
2022-08-22T00:19:56.793Z,8.10
2022-08-22T00:22:53.009Z,8.57
2022-08-22T00:25:34.576Z,9.77
2022-08-22T00:28:26.036Z,10.80
2022-08-22T00:31:20.457Z,7.88
2022-08-22T00:34:11.763Z,9.13
2022-08-22T00:36:53.948Z,8.15
2022-08-22T00:39:53.898Z,9.82
2022-08-22T00:43:03.910Z,8.60
2022-08-22T00:46:18.882Z,9.45
2022-08-22T00:49:16.751Z,10.32
2022-08-22T00:54:59.263Z,8.73
2022-08-22T00:58:05.726Z,8.65
2022-08-22T01:00:48.440Z,11.90
2022-08-22T01:03:46.019Z,11.52
2022-08-22T01:06:28.286Z,13.65
2022-08-22T01:09:07.603Z,12.98
2022-08-22T01:12:02.591Z,11.25
2022-08-22T01:15:06.602Z,14.27
2022-08-22T01:17:46.396Z,20.20
2022-08-22T01:20:26.262Z,19.27
2022-08-22T01:23:14.292Z,19.27
2022-08-22T01:25:50.900Z,19.40
2022-08-22T01:28:58.379Z,14.35
2022-08-22T01:32:17.934Z,15.48
2022-08-22T01:35:03.306Z,16.75
2022-08-22T01:38:10.427Z,15.27
2022-08-22T01:41:10.473Z,10.00
2022-08-22T01:44:04.989Z,11.43
2022-08-22T01:46:53.737Z,10.10
2022-08-22T01:49:33.251Z,13.32
2022-08-22T01:52:14.987Z,18.27
2022-08-22T01:54:57.522Z,17.50
2022-08-22T01:57:28.738Z,18.20
2022-08-22T02:00:11.179Z,17.98
2022-08-22T02:03:19.303Z,17.95
2022-08-22T02:06:00.468Z,15.98
2022-08-22T02:08:33.802Z,17.45
2022-08-22T02:11:05.875Z,16.88
2022-08-22T02:14:20.623Z,15.10
2022-08-22T02:16:58.051Z,12.68
2022-08-22T02:19:39.155Z,12.20
2022-08-22T02:22:44.347Z,13.85
2022-08-22T02:25:49.042Z,13.85
2022-08-22T02:28:27.612Z,12.15
2022-08-22T02:31:37.874Z,12.27
2022-08-22T02:34:40.584Z,11.40
2022-08-22T02:37:41.663Z,10.70
2022-08-22T02:40:33.730Z,11.57
2022-08-22T02:43:22.591Z,12.55
2022-08-22T02:46:02.787Z,11.15
2022-08-22T02:48:41.169Z,11.30
2022-08-22T02:51:29.427Z,15.20
2022-08-22T02:54:20.857Z,13.57
2022-08-22T02:57:14.303Z,16.17
2022-08-22T03:00:31.062Z,13.68
2022-08-22T03:03:15.868Z,12.80
2022-08-22T03:08:36.333Z,11.70
2022-08-22T03:11:21.607Z,12.93
2022-08-22T03:14:06.795Z,13.27
2022-08-22T03:16:52.335Z,16.10
2022-08-22T03:19:31.428Z,13.35
2022-08-22T03:22:14.882Z,14.55
2022-08-22T03:25:03.202Z,15.25
2022-08-22T03:27:51.030Z,12.32
2022-08-22T03:30:23.316Z,15.27
2022-08-22T03:33:20.281Z,15.35
2022-08-22T03:35:50.982Z,16.55
2022-08-22T03:38:45.734Z,13.45
2022-08-22T03:41:43.142Z,12.27
2022-08-22T03:47:10.500Z,11.23
2022-08-22T03:50:00.604Z,5.97
2022-08-22T03:53:18.662Z,7.53
2022-08-22T03:56:17.314Z,10.07
2022-08-22T03:58:52.684Z,9.65
2022-08-22T04:02:01.091Z,8.85
2022-08-22T04:05:01.735Z,11.23
2022-08-22T04:07:49.683Z,11.43
2022-08-22T04:10:19.755Z,12.40
2022-08-22T04:15:55.672Z,10.13
2022-08-22T04:19:08.786Z,11.40
2022-08-22T04:21:58.827Z,14.85
2022-08-22T04:24:41.435Z,12.40
2022-08-22T04:27:47.518Z,18.73
2022-08-22T04:30:17.855Z,13.23
2022-08-22T04:32:52.704Z,12.32
2022-08-22T04:35:37.492Z,9.13
2022-08-22T04:38:30.464Z,8.93
2022-08-22T04:41:13.257Z,7.68
2022-08-22T04:43:52.627Z,9.38
2022-08-22T04:46:36.759Z,10.00
2022-08-22T04:52:21.319Z,9.13
2022-08-22T04:54:58.940Z,8.57
2022-08-22T04:57:50.854Z,10.27
2022-08-22T05:00:20.859Z,9.20
2022-08-22T05:02:58.691Z,7.43
2022-08-22T05:05:41.375Z,5.85
2022-08-22T05:08:19.250Z,9.43
2022-08-22T05:10:52.388Z,13.18
2022-08-22T05:13:31.935Z,12.40
2022-08-22T05:16:06.944Z,10.30
2022-08-22T05:18:51.679Z,12.27
2022-08-22T05:21:27.423Z,11.82
2022-08-22T05:24:05.707Z,10.23
2022-08-22T05:26:41.994Z,12.52
2022-08-22T05:29:15.092Z,10.90
2022-08-22T05:32:03.576Z,12.20
2022-08-22T05:34:40.466Z,7.88
2022-08-22T05:39:51.108Z,7.32
2022-08-22T05:42:29.576Z,7.65
2022-08-22T05:45:02.954Z,6.13
2022-08-22T05:47:43.563Z,6.03
2022-08-22T05:50:25.167Z,4.43
2022-08-22T05:53:16.496Z,5.07
2022-08-22T05:56:04.662Z,4.35
2022-08-22T05:58:55.302Z,5.55
2022-08-22T06:04:41.373Z,10.15
2022-08-22T06:07:33.183Z,10.18
2022-08-22T06:10:24.854Z,12.77
2022-08-22T06:13:02.872Z,12.00
2022-08-22T06:16:18.197Z,11.77
2022-08-22T06:18:51.476Z,13.73
2022-08-22T06:21:34.956Z,11.70
2022-08-22T06:24:16.811Z,12.90
2022-08-22T06:26:50.775Z,13.18
2022-08-22T06:29:43.675Z,11.32
2022-08-22T06:32:59.351Z,12.77
2022-08-22T06:35:52.331Z,9.80
2022-08-22T06:38:28.095Z,8.48
2022-08-22T06:41:05.739Z,9.02
2022-08-22T06:43:44.473Z,9.75
2022-08-22T06:46:18.122Z,8.85
2022-08-22T06:48:50.279Z,8.10
2022-08-22T06:51:23.494Z,8.70
2022-08-22T06:53:59.322Z,10.68
2022-08-22T06:56:37.447Z,10.02
2022-08-22T06:59:16.255Z,9.57
2022-08-22T07:01:54.913Z,12.55
2022-08-22T07:04:27.854Z,11.18
2022-08-22T07:07:02.060Z,11.60
2022-08-22T07:09:41.978Z,10.50
2022-08-22T07:12:19.419Z,10.40
2022-08-22T07:14:53.020Z,12.07
2022-08-22T07:17:26.758Z,9.60
2022-08-22T07:20:23.764Z,10.63
2022-08-22T07:23:16.364Z,10.48
2022-08-22T07:26:26.233Z,11.50
2022-08-22T07:29:31.253Z,10.27
2022-08-22T07:32:13.923Z,10.30
2022-08-22T07:35:05.413Z,9.45
2022-08-22T07:37:35.438Z,10.35
2022-08-22T07:42:55.394Z,10.52
2022-08-22T07:45:34.521Z,11.38
2022-08-22T07:48:26.627Z,13.35
2022-08-22T07:51:13.551Z,10.95
2022-08-22T07:53:51.329Z,11.80
2022-08-22T07:56:27.028Z,12.68
2022-08-22T07:59:12.766Z,11.50
2022-08-22T08:01:54.588Z,13.35
2022-08-22T08:04:39.524Z,10.38
2022-08-22T08:07:15.191Z,11.85
2022-08-22T08:09:55.074Z,9.60
2022-08-22T08:12:42.789Z,13.32
2022-08-22T08:15:19.782Z,11.57
2022-08-22T08:18:01.483Z,11.95
2022-08-22T08:20:32.155Z,11.82
2022-08-22T08:23:03.839Z,12.88
2022-08-22T08:25:53.604Z,17.90
2022-08-22T08:28:37.494Z,18.48
2022-08-22T08:31:21.687Z,17.35
2022-08-22T08:33:59.224Z,17.50
2022-08-22T08:37:07.181Z,21.13
2022-08-22T08:39:51.920Z,14.75
2022-08-22T08:42:28.131Z,13.82
2022-08-22T08:45:03.659Z,13.43
2022-08-22T08:48:07.563Z,13.55
2022-08-22T08:50:47.494Z,14.15
2022-08-22T08:53:43.238Z,15.05
2022-08-22T08:56:37.958Z,19.67
2022-08-22T09:06:05.497Z,12.95
2022-08-22T09:11:28.586Z,13.23
2022-08-22T09:14:23.198Z,13.90
2022-08-22T09:17:08.680Z,13.52
2022-08-22T09:20:17.665Z,13.80
2022-08-22T09:23:34.271Z,13.27
2022-08-22T09:26:15.515Z,12.07
2022-08-22T09:29:11.228Z,10.80
2022-08-22T09:32:13.089Z,11.38
2022-08-22T09:34:53.265Z,11.82
2022-08-22T09:37:47.501Z,11.32
2022-08-22T09:40:16.617Z,13.15
2022-08-22T09:45:43.911Z,10.60
2022-08-22T09:48:14.827Z,9.23
2022-08-22T09:51:04.663Z,10.43
2022-08-22T09:54:03.413Z,9.90
2022-08-22T09:56:47.730Z,10.88
2022-08-22T09:59:52.119Z,12.38
2022-08-22T10:02:37.456Z,13.68
2022-08-22T10:05:43.922Z,12.80
2022-08-22T10:08:20.644Z,10.50
2022-08-22T10:11:28.870Z,9.57
2022-08-22T10:14:09.603Z,9.68
2022-08-22T10:17:01.018Z,10.50
2022-08-22T10:22:20.180Z,11.20
2022-08-22T10:24:52.976Z,12.60
2022-08-22T10:27:53.728Z,13.20
2022-08-22T10:30:51.503Z,13.40
2022-08-22T10:33:50.742Z,12.27
2022-08-22T10:37:02.421Z,11.55
2022-08-22T10:42:42.939Z,12.73
2022-08-22T10:45:36.513Z,14.00
2022-08-22T10:48:09.905Z,12.38
2022-08-22T10:50:54.361Z,11.55
2022-08-22T10:53:55.995Z,9.88
2022-08-22T10:56:28.794Z,8.65
2022-08-22T10:59:37.953Z,8.82
2022-08-22T11:02:24.902Z,9.57
2022-08-22T11:05:20.138Z,10.13
2022-08-22T11:08:05.423Z,8.77
2022-08-22T11:11:02.926Z,7.75
2022-08-22T11:13:56.512Z,8.38
2022-08-22T11:16:41.792Z,9.20
2022-08-22T11:19:16.071Z,8.48
2022-08-22T11:22:17.353Z,8.35
2022-08-22T11:25:08.174Z,9.85
2022-08-22T11:28:00.138Z,12.20
2022-08-22T11:30:52.910Z,8.73
2022-08-22T11:33:47.090Z,9.60
2022-08-22T11:36:57.470Z,10.02
2022-08-22T11:39:44.268Z,8.65
2022-08-22T11:42:47.568Z,8.30
2022-08-22T11:45:38.174Z,8.48
2022-08-22T11:48:38.760Z,6.82
2022-08-22T11:51:34.237Z,9.45
2022-08-22T11:54:09.344Z,10.48
2022-08-22T11:56:51.162Z,9.13
2022-08-22T11:59:27.014Z,10.57
2022-08-22T12:02:08.759Z,11.45
2022-08-22T12:04:44.062Z,14.70
2022-08-22T12:07:23.922Z,12.90
2022-08-22T12:10:01.207Z,16.08
2022-08-22T12:12:57.366Z,12.85
2022-08-22T12:16:01.675Z,15.05
2022-08-22T12:18:38.267Z,16.77
2022-08-22T12:21:52.321Z,26.60
2022-08-22T12:24:33.601Z,14.52
2022-08-22T12:27:28.844Z,14.07
2022-08-22T12:30:15.189Z,11.15
2022-08-22T12:33:13.134Z,13.05
2022-08-22T12:36:20.167Z,13.95
2022-08-22T12:38:56.215Z,13.07
2022-08-22T12:41:58.963Z,12.13
2022-08-22T12:44:54.082Z,11.82
2022-08-22T12:47:24.716Z,12.82
2022-08-22T12:50:14.567Z,14.15
2022-08-22T12:53:11.639Z,16.48
2022-08-22T12:56:14.827Z,20.50
2022-08-22T12:58:51.188Z,20.20
2022-08-22T13:01:23.317Z,15.57
2022-08-22T13:04:19.300Z,17.27
2022-08-22T13:07:19.220Z,15.82
2022-08-22T13:09:58.917Z,15.30
2022-08-22T13:12:35.187Z,16.75
2022-08-22T13:15:32.323Z,14.20
2022-08-22T13:18:29.852Z,17.42
2022-08-22T13:21:08.577Z,16.65
2022-08-22T13:23:46.930Z,16.45
2022-08-22T13:26:32.860Z,15.32
2022-08-22T13:29:26.977Z,16.75
2022-08-22T13:32:02.795Z,13.80
2022-08-22T13:34:56.311Z,15.48
2022-08-22T13:37:43.088Z,14.57
2022-08-22T13:40:25.194Z,15.15
2022-08-22T13:43:08.310Z,14.73
2022-08-22T13:45:41.346Z,13.18
2022-08-22T13:48:17.082Z,13.73
2022-08-22T13:51:10.931Z,13.45
2022-08-22T13:54:01.054Z,11.80
2022-08-22T13:57:03.455Z,13.38
2022-08-22T13:59:52.718Z,12.85
2022-08-22T14:02:35.656Z,14.35
2022-08-22T14:05:25.924Z,13.45
2022-08-22T14:08:13.277Z,11.65
2022-08-22T14:11:29.119Z,11.85
2022-08-22T14:14:08.214Z,12.50
2022-08-22T14:16:49.726Z,14.18
2022-08-22T14:19:38.293Z,12.43
2022-08-22T14:22:32.460Z,10.75
2022-08-22T14:25:27.510Z,10.75
2022-08-22T14:28:06.120Z,11.13
2022-08-22T14:31:03.732Z,11.70
2022-08-22T14:33:40.888Z,14.27
2022-08-22T14:36:25.562Z,13.98
2022-08-22T14:39:30.988Z,12.35
2022-08-22T14:42:12.075Z,12.40
2022-08-22T14:44:42.736Z,13.40
2022-08-22T14:47:54.245Z,12.85
2022-08-22T14:50:47.484Z,13.13
2022-08-22T14:53:22.479Z,13.52
2022-08-22T14:56:04.504Z,11.52
2022-08-22T14:58:48.853Z,10.07
2022-08-22T15:01:23.508Z,9.27
2022-08-22T15:04:19.250Z,10.43
2022-08-22T15:06:58.505Z,11.27
2022-08-22T15:09:54.799Z,7.45
2022-08-22T15:12:35.581Z,10.60
2022-08-22T15:15:13.900Z,8.48
2022-08-22T15:17:51.032Z,10.45
2022-08-22T15:20:45.255Z,7.30
2022-08-22T15:23:23.143Z,6.80
2022-08-22T15:26:13.191Z,8.35
2022-08-22T15:28:52.875Z,7.22
2022-08-22T15:31:24.392Z,6.05
2022-08-22T15:34:09.335Z,6.78
2022-08-22T15:37:07.844Z,3.40
2022-08-22T15:40:32.870Z,2.83
2022-08-22T15:43:22.416Z,4.80
2022-08-22T15:46:10.059Z,3.05
2022-08-22T15:48:59.710Z,3.95
2022-08-22T15:51:38.937Z,3.17
2022-08-22T15:54:25.044Z,3.45
2022-08-22T15:57:17.458Z,8.48
2022-08-22T15:59:54.583Z,9.25
2022-08-22T16:02:28.714Z,7.00
2022-08-22T16:05:11.534Z,12.00
2022-08-22T16:08:08.656Z,11.55
2022-08-22T16:10:50.824Z,10.13
2022-08-22T16:13:34.886Z,9.82
2022-08-22T16:16:13.408Z,8.15
2022-08-22T16:18:44.706Z,8.48
2022-08-22T16:21:24.112Z,9.77
2022-08-22T16:23:57.931Z,8.48
2022-08-22T16:26:44.015Z,9.48
2022-08-22T16:29:18.147Z,8.43
2022-08-22T16:31:49.485Z,10.93
2022-08-22T16:34:35.626Z,8.82
2022-08-22T16:37:25.968Z,8.73
2022-08-22T16:40:02.858Z,8.40
2022-08-22T16:42:43.699Z,7.88
2022-08-22T16:45:21.060Z,8.57
2022-08-22T16:47:58.225Z,9.27
2022-08-22T16:50:37.525Z,8.20
2022-08-22T16:53:23.861Z,12.02
2022-08-22T16:56:27.100Z,13.75
2022-08-22T16:59:23.904Z,9.65
2022-08-22T17:02:24.658Z,9.32
2022-08-22T17:05:05.311Z,9.63
2022-08-22T17:08:04.783Z,9.43
2022-08-22T17:10:44.389Z,10.65
2022-08-22T17:13:42.746Z,8.18
2022-08-22T17:16:16.860Z,9.73
2022-08-22T17:18:58.002Z,9.70
2022-08-22T17:21:33.691Z,7.45
2022-08-22T17:24:04.114Z,9.65
2022-08-22T17:26:54.316Z,9.48
2022-08-22T17:29:33.254Z,7.97
2022-08-22T17:32:21.389Z,8.20
2022-08-22T17:35:28.379Z,7.28
2022-08-22T17:38:01.622Z,6.65
2022-08-22T17:41:12.875Z,8.02
2022-08-22T17:43:55.031Z,7.28
2022-08-22T17:46:50.731Z,10.80
2022-08-22T17:49:42.374Z,7.22
2022-08-22T17:52:28.271Z,8.27
2022-08-22T17:55:04.506Z,8.45
2022-08-22T17:58:12.260Z,7.82
2022-08-22T18:01:11.809Z,8.45
2022-08-22T18:03:52.830Z,7.97
2022-08-22T18:06:34.882Z,5.65
2022-08-22T18:09:20.523Z,6.95
2022-08-22T18:12:03.515Z,7.30
2022-08-22T18:15:04.519Z,8.43
2022-08-22T18:17:49.924Z,7.15
2022-08-22T18:20:32.310Z,9.27
2022-08-22T18:23:21.532Z,8.63
2022-08-22T18:26:18.700Z,7.97
2022-08-22T18:28:52.166Z,7.53
2022-08-22T18:31:39.950Z,10.98
2022-08-22T18:34:33.150Z,12.10
2022-08-22T18:37:32.418Z,8.98
2022-08-22T18:40:11.994Z,10.07
2022-08-22T18:42:52.221Z,11.85
2022-08-22T18:45:47.929Z,10.68
2022-08-22T18:49:11.570Z,7.93
2022-08-22T18:51:38.385Z,13.48
2022-08-22T18:54:09.080Z,9.27
2022-08-22T18:56:56.858Z,9.75
2022-08-22T19:00:00.715Z,7.55
2022-08-22T19:02:58.662Z,9.27
2022-08-22T19:05:41.435Z,9.48
2022-08-22T19:08:36.923Z,8.82
2022-08-22T19:11:37.817Z,9.55
2022-08-22T19:14:27.170Z,6.70
2022-08-22T19:17:15.607Z,8.45
2022-08-22T19:20:15.420Z,7.85
2022-08-22T19:22:53.107Z,9.70
2022-08-22T19:25:28.859Z,9.50
2022-08-22T19:28:08.277Z,7.53
2022-08-22T19:30:43.756Z,10.30
2022-08-22T19:33:34.789Z,10.85
2022-08-22T19:36:12.403Z,11.95
2022-08-22T19:39:03.585Z,8.27
2022-08-22T19:41:53.517Z,7.18
2022-08-22T19:47:07.778Z,11.23
2022-08-22T19:49:41.201Z,11.48
2022-08-22T19:52:33.956Z,9.00
2022-08-22T19:55:34.374Z,10.23
2022-08-22T19:58:31.895Z,10.60
2022-08-22T20:01:08.403Z,12.50
2022-08-22T20:04:39.779Z,11.30
2022-08-22T20:10:34.307Z,8.35
2022-08-22T20:13:08.927Z,10.57
2022-08-22T20:16:14.493Z,8.98
2022-08-22T20:19:08.615Z,8.85
2022-08-22T20:21:49.270Z,10.90
2022-08-22T20:24:28.667Z,10.10
2022-08-22T20:27:14.031Z,10.77
2022-08-22T20:30:12.187Z,9.57
2022-08-22T20:32:47.371Z,9.57
2022-08-22T20:35:35.895Z,8.32
2022-08-22T20:38:09.173Z,8.93
2022-08-22T20:40:56.013Z,10.43
2022-08-22T20:43:51.252Z,10.50
2022-08-22T20:46:53.597Z,7.47
2022-08-22T20:49:32.955Z,12.07
2022-08-22T20:52:12.364Z,7.70
2022-08-22T20:54:43.039Z,10.25
2022-08-22T20:57:18.650Z,9.30
2022-08-22T20:59:53.277Z,11.02
2022-08-22T21:02:31.201Z,10.88
2022-08-22T21:05:19.448Z,11.73
2022-08-22T21:08:13.832Z,11.82
2022-08-22T21:11:02.280Z,14.23
2022-08-22T21:13:36.939Z,12.38
2022-08-22T21:16:14.739Z,12.38
2022-08-22T21:18:48.521Z,13.13
2022-08-22T21:21:21.659Z,17.27
2022-08-22T21:24:12.129Z,12.32
2022-08-22T21:26:47.924Z,9.43
2022-08-22T21:29:18.510Z,9.45
2022-08-22T21:32:04.339Z,8.45
2022-08-22T21:34:47.294Z,10.25
2022-08-22T21:37:25.608Z,9.88
2022-08-22T21:40:16.921Z,12.95
2022-08-22T21:43:06.892Z,11.25
2022-08-22T21:45:39.969Z,10.07
2022-08-22T21:48:44.994Z,10.60
2022-08-22T21:51:33.326Z,8.85
2022-08-22T21:54:24.955Z,9.95
2022-08-22T21:57:00.443Z,10.25
2022-08-22T21:59:52.163Z,9.15
2022-08-22T22:02:45.514Z,11.10
2022-08-22T22:05:18.983Z,10.57
2022-08-22T22:07:49.318Z,11.30
2022-08-22T22:10:23.716Z,10.73
2022-08-22T22:12:57.243Z,13.25
2022-08-22T22:15:30.870Z,10.07
2022-08-22T22:18:01.897Z,11.23
2022-08-22T22:20:32.113Z,10.80
2022-08-22T22:23:02.652Z,13.07
2022-08-22T22:25:40.381Z,11.30
2022-08-22T22:28:30.204Z,11.93
2022-08-22T22:31:00.295Z,11.52
2022-08-22T22:33:36.516Z,15.55
2022-08-22T22:36:11.182Z,15.70
2022-08-22T22:38:42.529Z,14.07
2022-08-22T22:41:17.599Z,13.13
2022-08-22T22:43:48.143Z,12.82
2022-08-22T22:46:18.176Z,12.45
2022-08-22T22:48:48.758Z,11.88
2022-08-22T22:51:22.075Z,13.80
2022-08-22T22:53:52.705Z,15.30
2022-08-22T22:59:00.884Z,12.48
2022-08-22T23:02:05.434Z,11.88
2022-08-22T23:04:37.507Z,12.82
2022-08-22T23:07:08.893Z,11.23
2022-08-22T23:09:44.686Z,7.82
2022-08-22T23:12:15.737Z,8.07
2022-08-22T23:14:46.307Z,12.70
2022-08-22T23:17:17.047Z,16.40
2022-08-22T23:19:47.782Z,14.25
2022-08-22T23:22:17.962Z,12.23
2022-08-22T23:24:50.778Z,11.38
2022-08-22T23:27:21.154Z,10.35
2022-08-22T23:29:51.955Z,14.38
2022-08-22T23:32:21.996Z,10.15
2022-08-22T23:34:52.698Z,9.88
2022-08-22T23:37:23.859Z,8.20
2022-08-22T23:39:54.470Z,8.82
2022-08-22T23:44:54.448Z,9.85
2022-08-22T23:49:54.597Z,8.35
2022-08-22T23:52:24.640Z,11.30
2022-08-22T23:54:55.741Z,8.52
2022-08-22T23:57:27.576Z,9.02
2022-08-22T23:59:59.968Z,9.93
